Tiempo atmosférico en la estación meteorológica de Rivilla De Barajas, Ávila (925 m.)



Fecha
DESCASC
Temp. máxima en grados centígrados (hora)
DESCASC
Temp. mínima en grados centígrados (hora)
DESCASC
Temp. media en grados centígrados
DESCASC
Racha de viento máxima en m/sg (hora)
DESCASC
Velocidad máxima media en intervalos de 10 minutos(hora)
DESCASC
Precipitaciones diarias en mm
DESCASC
Precipitaciones de 00:00 a 06:00 en mm
DESCASC
Precipitaciones de 06:00 a 12:00 en mm
DESCASC
Precipitaciones de 12:00 a 18:00 en mm
DESCASC
Precipitaciones de 18:00 a 24:00 en mm
DESCASC
18-08-2019 28.6 (17:40) 15.8 (06:50) 22.2 11.94 (19:20) 8.33 (19:20) 0 0 0 0 0
17-08-2019 33.2 (18:20) 15.9 (07:50) 24.6 11.39 (19:20) 6.94 (19:20) 0 0 0 0 0
16-08-2019 31.6 (17:40) 17.6 (07:00) 24.6 11.39 (17:40) 7.22 (17:40) 0 0 0 0 0
15-08-2019 30.4 (18:00) 15.8 (00:00) 23.1 8.06 (14:00) 4.44 (00:10) 0 0 0 0 0
14-08-2019 29.4 (18:20) 14.1 (00:00) 21.8 7.5 (16:50) 4.72 (16:50) 0 0 0 0 0
13-08-2019 25 (18:00) 8.1 (00:00) 16.6 6.39 (17:00) 3.89 (02:40) 0 0 0 0 0
12-08-2019 21.9 (18:20) 7.4 (00:00) 14.6 8.89 (15:20) 5 (19:10) 0 0 0 0 0
11-08-2019 21.7 (17:40) 11.9 (00:00) 16.8 12.78 (16:40) 8.61 (19:50) 0 0 0 0 0
10-08-2019 25.9 (18:30) 11.2 (00:00) 18.5 8.06 (18:40) 5 (18:40) 0 0 0 0 0
09-08-2019 24.4 (11:40) 15.1 (00:00) 19.8 15.56 (17:10) 10.83 (12:30) 1.8 0 0 0.2 1.6
08-08-2019 30.3 (16:30) 16.9 (00:00) 23.6 15 (18:00) 9.17 (18:00) 0 0 0 0 0
07-08-2019 24.2 (14:10) 17.2 (00:00) 20.7 10 (17:20) 6.39 (18:30) 0 0 0 0 0
06-08-2019 31.3 (16:10) 16.9 (00:00) 24.1 10.56 (16:40) 7.5 (20:50) 0 0 0 0 0
05-08-2019 31.8 (17:10) 15.9 (00:00) 23.8 8.89 (18:50) 6.39 (19:30) 0 0 0 0 0
04-08-2019 31.7 (18:30) 17.1 (00:00) 24.4 10.83 (18:20) 7.22 (18:20) 0 0 0 0 0
03-08-2019 32.5 (17:10) 17.6 (00:00) 25.1 11.94 (18:30) 6.94 (19:10) 0 0 0 0 0
02-08-2019 31.6 (18:00) 13.4 (00:00) 22.5 7.78 (18:10) 5 (18:20) 0 0 0 0 0
01-08-2019 29.2 (16:50) 13.7 (00:00) 21.5 10.83 (19:40) 7.5 (17:30) 0 0 0 0 0
31-07-2019 29.3 (17:30) 9.9 (00:00) 19.6 10 (16:20) 6.39 (16:10) 0 0 0 0 0
30-07-2019 24 (18:20) 9.3 (00:00) 16.7 7.22 (20:30) 4.44 (20:50) 0 0 0 0 0
29-07-2019 25.1 (17:10) 13.6 (00:00) 19.4 13.61 (14:50) 8.33 (17:50) 0 0 0 0 0
28-07-2019 26.3 (18:40) 9.9 (00:00) 18.1 8.33 (14:50) 5 (00:30) 0 0 0 0 0
27-07-2019 23.5 (19:00) 12 (00:00) 17.8 12.5 (14:50) 9.17 (14:40) 0 0 0 0 0
26-07-2019 24.8 (17:10) 15.5 (00:00) 20.1 11.67 (19:00) 8.06 (21:00) 0 0 0 0 0
25-07-2019 31.4 (17:00) 18.8 (00:00) 25.1 14.44 (17:50) 10 (15:20) 0 0 0 0 0
24-07-2019 34.4 (16:30) 18.2 (00:00) 26.3 10 (16:30) 6.11 (20:00) 0 0 0 0 0
23-07-2019 34.5 (17:40) 18.2 (00:00) 26.4 21.11 (12:10) 9.72 (12:20) 2 0 2 0 0
22-07-2019 36.3 (15:20) 22.9 (00:00) 29.6 11.67 (15:50) 6.67 (21:30) 0 0 0 0 0
21-07-2019 34 (16:50) 15.4 (00:00) 24.7 7.78 (17:00) 4.17 (14:30) 0 0 0 0 0

Gráficas

Temp. máximas Temp. mínimas Temp. medias Precipitaciones Rachas de viento máximas Velocidades máximas media en intervalos de 10 minutos

Datos horarios

Fecha y hora oficial Temperatura (ºC) Velocidad del viento (km/h) Dirección del viento Racha (km/h) Dirección de racha Precipitación (mm) Presión (hPa) Tendencia (hPa) Humedad (%)
2019-08-19 23:00:00 19.2 13 Nordeste 20 Nordeste 0 -- -- 59
2019-08-19 22:00:00 20 13 Nordeste 23 Nordeste 0 -- -- 56
2019-08-19 21:00:00 21.7 5 Norte 9 Norte 0 -- -- 45
2019-08-19 20:00:00 22.1 6 Norte 15 Noroeste 0 -- -- 46
2019-08-19 19:00:00 21.9 11 Noroeste 16 Norte 0 -- -- 46
2019-08-19 18:00:00 22.1 8 Norte 16 Norte 0 -- -- 48
2019-08-19 17:00:00 22.6 12 Norte 21 Noroeste 0 -- -- 47
2019-08-19 16:00:00 22.5 10 Norte 19 Norte 0 -- -- 50
2019-08-19 15:00:00 21.7 10 Norte 23 Nordeste 0 -- -- 54
2019-08-19 14:00:00 21.8 13 Norte 22 Norte 0 -- -- 55
2019-08-19 13:00:00 21.1 10 Norte 21 Norte 0 -- -- 57
2019-08-19 12:00:00 18.9 10 Nordeste 18 Norte 0 -- -- 66
2019-08-19 11:00:00 18.1 9 Norte 13 Norte 0 -- -- 70
2019-08-19 10:00:00 15.9 6 Norte 10 Norte 0 -- -- 79
2019-08-19 09:00:00 15.3 4 Nordeste 6 Nordeste 0 -- -- 81
2019-08-19 08:00:00 14.2 2 Norte 6 Nordeste 0 -- -- 82
2019-08-19 07:00:00 14.2 4 Nordeste 9 Norte 0 -- -- 82
2019-08-19 06:00:00 15 3 Norte 7 Norte 0 -- -- 74
2019-08-19 05:00:00 15.4 5 Noroeste 10 Noroeste 0 -- -- 70
2019-08-19 04:00:00 16.6 7 Noroeste 10 Oeste 0 -- -- 66
2019-08-19 03:00:00 17.3 9 Noroeste 17 Noroeste 0 -- -- 64
2019-08-19 02:00:00 18.9 12 Noroeste 26 Norte 0 -- -- 57
2019-08-19 01:00:00 20.7 11 Noroeste 19 Oeste 0 -- -- 59
2019-08-19 00:00:00 20.7 15 Noroeste 18 Noroeste 0 -- -- 60
2019-08-18 23:00:00 20.9 8 Noroeste 13 Noroeste 0 -- -- 57
2019-08-18 22:00:00 22.8 12 Noroeste 21 Noroeste 0 -- -- 53
2019-08-18 21:00:00 24.6 15 Noroeste 34 Noroeste 0 -- -- 49
2019-08-18 20:00:00 26.6 27 Noroeste 43 Oeste 0 -- -- 44
2019-08-18 19:00:00 27.3 22 Noroeste 40 Noroeste 0 -- -- 37
2019-08-18 18:00:00 28.1 27 Noroeste 40 Oeste 0 -- -- 33
2019-08-18 17:00:00 28.4 25 Oeste 41 Noroeste 0 -- -- 32
2019-08-18 16:00:00 27.1 23 Oeste 38 Noroeste 0 -- -- 33
2019-08-18 15:00:00 26.9 22 Oeste 33 Oeste 0 -- -- 31
2019-08-18 14:00:00 23.6 22 Oeste 37 Oeste 0 -- -- 45
2019-08-18 13:00:00 25.1 22 Noroeste 30 Oeste 0 -- -- 37
2019-08-18 12:00:00 24.3 14 Oeste 23 Oeste 0 -- -- 38
2019-08-18 11:00:00 23.2 15 Oeste 23 Sudoeste 0 -- -- 46
2019-08-18 10:00:00 20.2 16 Sudoeste 27 Sudoeste 0 -- -- 55
2019-08-18 09:00:00 17.1 16 Sudoeste 25 Sudoeste 0 -- -- 72
2019-08-18 08:00:00 15.9 13 Oeste 20 Oeste 0 -- -- 74
2019-08-18 07:00:00 16.2 13 Oeste 16 Oeste 0 -- -- 68
2019-08-18 06:00:00 16.8 9 Sudoeste 15 Oeste 0 -- -- 63
2019-08-18 05:00:00 18.4 9 Sudoeste 17 Sudoeste 0 -- -- 57
2019-08-18 04:00:00 19.1 12 Oeste 22 Oeste 0 -- -- 52
2019-08-18 03:00:00 19.7 15 Sudoeste 21 Sudoeste 0 -- -- 42
2019-08-18 02:00:00 20.6 13 Oeste 18 Oeste 0 -- -- 37
2019-08-18 01:00:00 22.7 11 Sudoeste 15 Sudoeste 0 -- -- 29
2019-08-18 00:00:00 23.8 7 Sudoeste 14 Sudoeste 0 -- -- 26
2019-08-17 23:00:00 24.3 10 Sudoeste 17 Oeste 0 -- -- 28
2019-08-17 22:00:00 25.6 14 Oeste 20 Noroeste 0 -- -- 27
2019-08-17 21:00:00 29.6 15 Oeste 27 Oeste 0 -- -- 21
2019-08-17 20:00:00 32 20 Oeste 41 Oeste 0 -- -- 17
2019-08-17 19:00:00 32.8 24 Oeste 39 Sudoeste 0 -- -- 18
2019-08-17 18:00:00 32.5 17 Noroeste 30 Noroeste 0 -- -- 24
2019-08-17 17:00:00 32.3 13 Noroeste 29 Oeste 0 -- -- 26
2019-08-17 16:00:00 31.6 19 Oeste 29 Oeste 0 -- -- 26
2019-08-17 15:00:00 30.4 12 Noroeste 24 Noroeste 0 -- -- 29
2019-08-17 14:00:00 29 11 Norte 21 Norte 0 -- -- 32
2019-08-17 13:00:00 28 12 Noroeste 19 Norte 0 -- -- 34
2019-08-17 12:00:00 25.9 4 Noroeste 11 Norte 0 -- -- 39
2019-08-17 11:00:00 24.3 4 Este 9 Norte 0 -- -- 44
2019-08-17 10:00:00 21.6 6 Noroeste 10 Oeste 0 -- -- 52
2019-08-17 09:00:00 19.7 5 Oeste 13 Oeste 0 -- -- 55
2019-08-17 08:00:00 16.3 10 Oeste 13 Oeste 0 -- -- 62
2019-08-17 07:00:00 17.7 8 Sudoeste 14 Sudoeste 0 -- -- 56
2019-08-17 06:00:00 19 9 Sudoeste 16 Sudoeste 0 -- -- 53
2019-08-17 05:00:00 19.3 10 Sudoeste 17 Sudoeste 0 -- -- 51
2019-08-17 04:00:00 19.1 10 Sudoeste 19 Sudoeste 0 -- -- 49
2019-08-17 03:00:00 20.3 14 Sudoeste 19 Sudoeste 0 -- -- 43
2019-08-17 02:00:00 21.4 13 Sudoeste 22 Oeste 0 -- -- 39
2019-08-17 01:00:00 22.2 12 Oeste 18 Oeste 0 -- -- 35
2019-08-17 00:00:00 23.3 11 Sudoeste 14 Oeste 0 -- -- 31
2019-08-16 23:00:00 24.4 11 Oeste 12 Oeste 0 -- -- 28
2019-08-16 22:00:00 24.8 10 Oeste 17 Oeste 0 -- -- 27
2019-08-16 21:00:00 28.7 14 Noroeste 30 Noroeste 0 -- -- 22
2019-08-16 20:00:00 30.5 23 Noroeste 32 Noroeste 0 -- -- 23
2019-08-16 19:00:00 31.1 25 Noroeste 40 Noroeste 0 -- -- 24
2019-08-16 18:00:00 31.5 25 Noroeste 41 Oeste 0 -- -- 26
2019-08-16 17:00:00 31.3 19 Noroeste 33 Oeste 0 -- -- 29
2019-08-16 16:00:00 30.6 22 Oeste 33 Oeste 0 -- -- 32
2019-08-16 15:00:00 29.9 18 Oeste 34 Noroeste 0 -- -- 32
2019-08-16 14:00:00 28.5 17 Noroeste 28 Noroeste 0 -- -- 36
2019-08-16 13:00:00 26.8 10 Noroeste 23 Noroeste 0 -- -- 41
2019-08-16 12:00:00 25.4 12 Noroeste 20 Oeste 0 -- -- 45
2019-08-16 11:00:00 23.6 12 Oeste 19 Noroeste 0 -- -- 50
2019-08-16 10:00:00 21.6 11 Oeste 21 Oeste 0 -- -- 56
2019-08-16 09:00:00 19.4 14 Oeste 22 Oeste 0 -- -- 61
2019-08-16 08:00:00 18 14 Oeste 20 Oeste 0 -- -- 63
2019-08-16 07:00:00 17.6 12 Sudoeste 21 Sudoeste 0 -- -- 63
2019-08-16 06:00:00 18.5 14 Sudoeste 21 Sudoeste 0 -- -- 60
2019-08-16 05:00:00 18.5 13 Sudoeste 19 Sudoeste 0 -- -- 58
2019-08-16 04:00:00 18.2 8 Sudoeste 13 Sudoeste 0 -- -- 51
2019-08-16 03:00:00 19.2 5 Sudoeste 13 Oeste 0 -- -- 48
2019-08-16 02:00:00 20.5 9 Oeste 12 Sudoeste 0 -- -- 47
2019-08-16 01:00:00 21.8 6 Sudeste 14 Este 0 -- -- 45
2019-08-16 00:00:00 23.3 5 Sudeste 15 Este 0 -- -- 40
2019-08-15 23:00:00 24.2 4 Sudeste 6 Este 0 -- -- 38
2019-08-15 22:00:00 25.6 3 Nordeste 10 Norte 0 -- -- 34
2019-08-15 21:00:00 28.2 7 Norte 17 Norte 0 -- -- 31
2019-08-15 20:00:00 29.5 10 Norte 20 Norte 0 -- -- 29
2019-08-15 19:00:00 30.1 11 Noroeste 21 Noroeste 0 -- -- 28
2019-08-15 18:00:00 30.4 13 Norte 25 Norte 0 -- -- 27
2019-08-15 17:00:00 29.9 8 Oeste 23 Nordeste 0 -- -- 27
2019-08-15 16:00:00 29.2 11 Norte 22 Nordeste 0 -- -- 30
2019-08-15 15:00:00 28.1 12 Nordeste 28 Nordeste 0 -- -- 31
2019-08-15 14:00:00 27.2 12 Nordeste 29 Norte 0 -- -- 33
2019-08-15 13:00:00 25.9 9 Nordeste 19 Nordeste 0 -- -- 34
2019-08-15 12:00:00 23.5 5 Nordeste 16 Norte 0 -- -- 49
2019-08-15 11:00:00 21.3 5 Norte 10 Norte 0 -- -- 57
2019-08-15 10:00:00 19.1 3 Norte 9 Noroeste 0 -- -- 65
2019-08-15 09:00:00 17.6 7 Noroeste 13 Oeste 0 -- -- 72
2019-08-15 08:00:00 15.9 10 Oeste 13 Sudoeste 0 -- -- 74
2019-08-15 07:00:00 16.5 10 Oeste 15 Oeste 0 -- -- 72
2019-08-15 06:00:00 17.8 10 Oeste 17 Oeste 0 -- -- 68
2019-08-15 05:00:00 17.8 10 Oeste 16 Oeste 0 -- -- 68
2019-08-15 04:00:00 18.9 9 Oeste 15 Oeste 0 -- -- 64
2019-08-15 03:00:00 19.5 9 Oeste 14 Noroeste 0 -- -- 64
2019-08-15 02:00:00 20 11 Noroeste 17 Noroeste 0 -- -- 62
2019-08-15 01:00:00 21.3 13 Noroeste 19 Noroeste 0 -- -- 57
2019-08-15 00:00:00 22.3 17 Noroeste 20 Noroeste 0 -- -- 50
2019-08-14 23:00:00 23.5 11 Oeste 13 Oeste 0 -- -- 37
2019-08-14 22:00:00 24.6 9 Oeste 13 Oeste 0 -- -- 33
2019-08-14 21:00:00 27.5 10 Oeste 18 Noroeste 0 -- -- 29
2019-08-14 20:00:00 28.9 9 Noroeste 24 Noroeste 0 -- -- 26
2019-08-14 19:00:00 29.3 13 Oeste 23 Noroeste 0 -- -- 24
2019-08-14 18:00:00 29 8 Noroeste 27 Noroeste 0 -- -- 24
2019-08-14 17:00:00 28.7 12 Noroeste 27 Oeste 0 -- -- 25
2019-08-14 16:00:00 28 13 Noroeste 24 Noroeste 0 -- -- 24
2019-08-14 15:00:00 27.4 11 Norte 24 Noroeste 0 -- -- 23
2019-08-14 14:00:00 26.7 7 Oeste 20 Oeste 0 -- -- 23
2019-08-14 13:00:00 25.1 10 Noroeste 18 Noroeste 0 -- -- 25
2019-08-14 12:00:00 23.7 11 Noroeste 19 Noroeste 0 -- -- 27
2019-08-14 11:00:00 22.7 12 Oeste 17 Oeste 0 -- -- 28
2019-08-14 10:00:00 20 11 Oeste 17 Oeste 0 -- -- 32
2019-08-14 09:00:00 15 3 Noroeste 8 Sudoeste 0 -- -- 40
2019-08-14 08:00:00 14.1 6 Noroeste 10 Sudoeste 0 -- -- 42
2019-08-14 07:00:00 14.3 7 Sudoeste 9 Sur 0 -- -- 40
2019-08-14 06:00:00 16.1 5 Sur 14 Sur 0 -- -- 35
2019-08-14 05:00:00 15.9 6 Sur 12 Sudeste 0 -- -- 34
2019-08-14 04:00:00 15.9 5 Sur 12 Sur 0 -- -- 35
2019-08-14 03:00:00 16 7 Sur 12 Sur 0 -- -- 35
2019-08-14 02:00:00 16.5 6 Sur 13 Sur 0 -- -- 36
2019-08-14 01:00:00 17.8 4 Sudeste 5 Sudeste 0 -- -- 35
2019-08-14 00:00:00 18.4 0 Calma 3 Nordeste 0 -- -- 34
2019-08-13 23:00:00 19 0 Calma 9 Norte 0 -- -- 32
2019-08-13 22:00:00 20.1 9 Norte 14 Norte 0 -- -- 29
2019-08-13 21:00:00 23.1 12 Norte 18 Norte 0 -- -- 25
2019-08-13 20:00:00 24.4 10 Norte 20 Norte 0 -- -- 21
2019-08-13 19:00:00 24.8 12 Norte 23 Noroeste 0 -- -- 22
2019-08-13 18:00:00 25 14 Noroeste 23 Noroeste 0 -- -- 22
2019-08-13 17:00:00 24.6 13 Norte 23 Norte 0 -- -- 23
2019-08-13 16:00:00 23.8 6 Nordeste 19 Nordeste 0 -- -- 26
2019-08-13 15:00:00 22.9 8 Nordeste 23 Nordeste 0 -- -- 29
2019-08-13 14:00:00 21.6 9 Nordeste 21 Nordeste 0 -- -- 34
2019-08-13 13:00:00 20.2 10 Nordeste 21 Este 0 -- -- 38
2019-08-13 12:00:00 18.9 11 Nordeste 18 Este 0 -- -- 44
2019-08-13 11:00:00 15.7 9 Este 16 Este 0 -- -- 56
2019-08-13 10:00:00 13 7 Nordeste 12 Este 0 -- -- 66
2019-08-13 09:00:00 11 6 Este 8 Este 0 -- -- 74
2019-08-13 08:00:00 8.7 2 Este 5 Este 0 -- -- 79
2019-08-13 07:00:00 8.3 4 Este 9 Sudeste 0 -- -- 81
2019-08-13 06:00:00 8.9 7 Sudeste 15 Este 0 -- -- 78
2019-08-13 05:00:00 9.7 10 Nordeste 14 Nordeste 0 -- -- 76
2019-08-13 04:00:00 10.9 7 Nordeste 17 Este 0 -- -- 70
2019-08-13 03:00:00 12 13 Este 17 Este 0 -- -- 63
2019-08-13 02:00:00 14 10 Nordeste 17 Este 0 -- -- 55
2019-08-13 01:00:00 15.3 9 Nordeste 16 Nordeste 0 -- -- 48
2019-08-13 00:00:00 16.2 7 Nordeste 17 Este 0 -- -- 43
2019-08-12 23:00:00 17.9 14 Este 22 Este 0 -- -- 37
2019-08-12 22:00:00 18.6 7 Nordeste 14 Nordeste 0 -- -- 33
2019-08-12 21:00:00 19.8 12 Norte 18 Norte 0 -- -- 31
2019-08-12 20:00:00 20.5 13 Nordeste 26 Norte 0 -- -- 29
2019-08-12 19:00:00 21.7 17 Nordeste 25 Nordeste 0 -- -- 28
2019-08-12 18:00:00 21.6 12 Nordeste 29 Nordeste 0 -- -- 28
2019-08-12 17:00:00 21 9 Nordeste 28 Nordeste 0 -- -- 30
2019-08-12 16:00:00 20.4 12 Nordeste 32 Nordeste 0 -- -- 31
2019-08-12 15:00:00 19.4 13 Nordeste 27 Norte 0 -- -- 37
2019-08-12 14:00:00 18.2 12 Nordeste 27 Norte 0 -- -- 41
2019-08-12 13:00:00 16.9 11 Nordeste 24 Nordeste 0 -- -- 48
2019-08-12 12:00:00 15.6 12 Nordeste 22 Nordeste 0 -- -- 53
2019-08-12 11:00:00 13.9 9 Nordeste 16 Nordeste 0 -- -- 63
2019-08-12 10:00:00 12.6 8 Nordeste 14 Nordeste 0 -- -- 70
2019-08-12 09:00:00 10.6 9 Norte 12 Norte 0 -- -- 79
2019-08-12 08:00:00 7.7 6 Oeste 8 Oeste 0 -- -- 84
2019-08-12 07:00:00 8.1 6 Oeste 9 Oeste 0 -- -- 81
2019-08-12 06:00:00 8.5 8 Oeste 10 Oeste 0 -- -- 78
2019-08-12 05:00:00 9 8 Oeste 10 Oeste 0 -- -- 75
2019-08-12 04:00:00 10.2 8 Oeste 14 Noroeste 0 -- -- 71
2019-08-12 03:00:00 10.5 12 Oeste 15 Noroeste 0 -- -- 69
2019-08-12 02:00:00 11.3 11 Noroeste 15 Noroeste 0 -- -- 64
2019-08-12 01:00:00 12.3 6 Noroeste 21 Norte 0 -- -- 60
2019-08-12 00:00:00 14.1 16 Norte 28 Noroeste 0 -- -- 54
2019-08-11 23:00:00 14.7 14 Noroeste 18 Noroeste 0 -- -- 45
2019-08-11 22:00:00 16.4 13 Noroeste 25 Noroeste 0 -- -- 39
2019-08-11 21:00:00 19.2 20 Noroeste 38 Noroeste 0 -- -- 33
2019-08-11 20:00:00 20.6 26 Noroeste 44 Oeste 0 -- -- 29
2019-08-11 19:00:00 21.2 31 Oeste 42 Oeste 0 -- -- 31
2019-08-11 18:00:00 21.5 27 Oeste 42 Oeste 0 -- -- 33
2019-08-11 17:00:00 21.3 25 Noroeste 46 Noroeste 0 -- -- 37
2019-08-11 16:00:00 20.4 25 Noroeste 41 Noroeste 0 -- -- 44
2019-08-11 15:00:00 19.7 22 Oeste 35 Noroeste 0 -- -- 50
2019-08-11 14:00:00 18.8 21 Oeste 31 Noroeste 0 -- -- 59
2019-08-11 13:00:00 17.3 21 Noroeste 28 Noroeste 0 -- -- 68
2019-08-11 12:00:00 17.2 20 Oeste 29 Oeste 0 -- -- 68
2019-08-11 11:00:00 16.4 21 Oeste 29 Oeste 0 -- -- 75
2019-08-11 10:00:00 15 18 Oeste 22 Oeste 0 -- -- 84
2019-08-11 09:00:00 15.1 3 Sur 6 Sudeste 0 -- -- 78
2019-08-11 08:00:00 12.1 2 Sudoeste 6 Sudeste 0 -- -- 87
2019-08-11 07:00:00 12.4 4 Sudeste 8 Norte 0 -- -- 87
2019-08-11 06:00:00 13.5 9 Norte 17 Noroeste 0 -- -- 84
2019-08-11 05:00:00 14.9 10 Oeste 19 Oeste 0 -- -- 77
2019-08-11 04:00:00 15.7 17 Oeste 22 Oeste 0 -- -- 70
2019-08-11 03:00:00 16.5 12 Oeste 23 Noroeste 0 -- -- 67
2019-08-11 02:00:00 18.7 11 Oeste 14 Oeste 0 -- -- 48
2019-08-11 01:00:00 19 4 Oeste 8 Oeste 0 -- -- 45
2019-08-11 00:00:00 20 6 Noroeste 12 Noroeste 0 -- -- 42
2019-08-10 23:00:00 21.2 11 Norte 18 Noroeste 0 -- -- 41
2019-08-10 22:00:00 22.4 14 Noroeste 23 Noroeste 0 -- -- 39
2019-08-10 21:00:00 23.5 9 Norte 19 Noroeste 0 -- -- 39
2019-08-10 20:00:00 24.3 13 Noroeste 27 Noroeste 0 -- -- 39
2019-08-10 19:00:00 25.5 14 Noroeste 29 Oeste 0 -- -- 36
2019-08-10 18:00:00 25.8 17 Noroeste 25 Noroeste 0 -- -- 33
2019-08-10 17:00:00 25.4 13 Noroeste 23 Noroeste 0 -- -- 33
2019-08-10 16:00:00 24.5 6 Noroeste 19 Noroeste 0 -- -- 37
2019-08-10 15:00:00 23 8 Norte 14 Norte 0 -- -- 40
2019-08-10 14:00:00 21.3 5 Norte 14 Este 0 -- -- 49
2019-08-10 13:00:00 19.7 8 Este 19 Este 0 -- -- 58
2019-08-10 12:00:00 18.1 7 Este 14 Este 0 -- -- 65
2019-08-10 11:00:00 16.8 4 Norte 9 Noroeste 0 -- -- 71
2019-08-10 10:00:00 15.8 4 Norte 9 Noroeste 0 -- -- 75
2019-08-10 09:00:00 14.3 0 Calma 7 Oeste 0 -- -- 86
2019-08-10 08:00:00 11.3 2 Sudoeste 9 Sur 0 -- -- 92
2019-08-10 07:00:00 11.2 4 Sudoeste 8 Sur 0 -- -- 93
2019-08-10 06:00:00 11.4 4 Sudoeste 10 Sudoeste 0 -- -- 91
2019-08-10 05:00:00 12 6 Sudoeste 9 Sudoeste 0 -- -- 93
2019-08-10 04:00:00 12.5 4 Sudoeste 12 Oeste 0 -- -- 91
2019-08-10 03:00:00 13.3 7 Oeste 13 Oeste 0 -- -- 89
2019-08-10 02:00:00 14.2 12 Oeste 17 Oeste 0 -- -- 87
2019-08-10 01:00:00 15.3 10 Sudoeste 16 Sudoeste 0 -- -- 81
2019-08-10 00:00:00 15.8 10 Sudoeste 15 Sudoeste 0 -- -- 81
2019-08-09 23:00:00 16.2 9 Sudoeste 15 Sudoeste 0 -- -- 84
2019-08-09 22:00:00 16.8 9 Sudoeste 21 Sudoeste 0 -- -- 89
2019-08-09 21:00:00 18 15 Sudoeste 30 Sudoeste 0 -- -- 84
2019-08-09 20:00:00 17.3 17 Sudoeste 30 Oeste 0 -- -- 90
2019-08-09 19:00:00 15.2 19 Oeste 44 Oeste 1.6 -- -- 93
2019-08-09 18:00:00 16.6 26 Oeste 56 Oeste 0.2 -- -- 92
2019-08-09 17:00:00 21.6 34 Oeste 55 Oeste 0 -- -- 58
2019-08-09 16:00:00 23.4 34 Oeste 50 Oeste 0 -- -- 70
2019-08-09 15:00:00 20.2 24 Oeste 44 Oeste 0 -- -- 90
2019-08-09 14:00:00 21.9 25 Noroeste 37 Oeste 0 -- -- 71
2019-08-09 13:00:00 21 27 Noroeste 54 Oeste 0 -- -- 73
2019-08-09 12:00:00 24.3 38 Oeste 54 Oeste 0 -- -- 63
2019-08-09 11:00:00 23 35 Oeste 53 Oeste 0 -- -- 66
2019-08-09 10:00:00 22.7 32 Sudoeste 48 Sudoeste 0 -- -- 68
2019-08-09 09:00:00 21 28 Oeste 46 Sudoeste 0 -- -- 74
2019-08-09 08:00:00 19.1 17 Sudoeste 32 Oeste 0 -- -- 78
2019-08-09 07:00:00 17.5 9 Oeste 16 Sudoeste 0 -- -- 76
2019-08-09 06:00:00 18.7 12 Oeste 21 Sudoeste 0 -- -- 71
2019-08-09 05:00:00 18.8 11 Sudoeste 25 Sudoeste 0 -- -- 75
2019-08-09 04:00:00 19.4 11 Sudoeste 21 Sudoeste 0 -- -- 73
2019-08-09 03:00:00 20 6 Sudoeste 14 Sudoeste 0 -- -- 70
2019-08-09 02:00:00 20.6 5 Sur 23 Oeste 0 -- -- 68
2019-08-09 01:00:00 21.8 15 Sudoeste 27 Oeste 0 -- -- 65
2019-08-09 00:00:00 22.9 15 Sudoeste 30 Oeste 0 -- -- 62
2019-08-08 23:00:00 23.8 18 Oeste 32 Oeste 0 -- -- 58
2019-08-08 22:00:00 24.9 19 Oeste 38 Oeste 0 -- -- 51
2019-08-08 21:00:00 26.6 25 Oeste 42 Oeste 0 -- -- 44
2019-08-08 20:00:00 28.4 27 Oeste 48 Oeste 0 -- -- 39
2019-08-08 19:00:00 29.1 33 Oeste 52 Oeste 0 -- -- 40
2019-08-08 18:00:00 29.8 33 Oeste 54 Oeste 0 -- -- 38
2019-08-08 17:00:00 30 30 Oeste 45 Oeste 0 -- -- 34
2019-08-08 16:00:00 29.9 28 Oeste 49 Oeste 0 -- -- 38
2019-08-08 15:00:00 29.4 17 Oeste 41 Oeste 0 -- -- 40
2019-08-08 14:00:00 28.4 23 Oeste 35 Oeste 0 -- -- 43
2019-08-08 13:00:00 26.8 13 Oeste 31 Oeste 0 -- -- 48
2019-08-08 12:00:00 25.6 17 Oeste 35 Sudoeste 0 -- -- 51
2019-08-08 11:00:00 24.3 20 Sudoeste 33 Oeste 0 -- -- 54
2019-08-08 10:00:00 22.5 14 Sudoeste 23 Sudoeste 0 -- -- 59
2019-08-08 09:00:00 20.1 6 Sudoeste 16 Sudoeste 0 -- -- 65
2019-08-08 08:00:00 18.7 8 Sudoeste 17 Sudoeste 0 -- -- 68
2019-08-08 07:00:00 18.4 10 Sudoeste 16 Sudoeste 0 -- -- 69
2019-08-08 06:00:00 17 6 Sudoeste 10 Sudoeste 0 -- -- 72
2019-08-08 05:00:00 17.8 8 Sudoeste 15 Sudoeste 0 -- -- 68
2019-08-08 04:00:00 18.5 9 Sudoeste 24 Sudoeste 0 -- -- 65
2019-08-08 03:00:00 18.5 11 Sudoeste 21 Sudoeste 0 -- -- 64
2019-08-08 02:00:00 18.5 10 Sudoeste 19 Sudoeste 0 -- -- 66
2019-08-08 01:00:00 18.5 13 Sudoeste 20 Sudoeste 0 -- -- 64
2019-08-08 00:00:00 18.9 11 Sudoeste 20 Sudoeste 0 -- -- 60
2019-08-07 23:00:00 19.5 11 Sudoeste 15 Sudoeste 0 -- -- 58
2019-08-07 22:00:00 20.6 9 Sudoeste 15 Oeste 0 -- -- 54
2019-08-07 21:00:00 22.1 10 Oeste 26 Oeste 0 -- -- 48
2019-08-07 20:00:00 23.2 20 Oeste 31 Sudoeste 0 -- -- 46
2019-08-07 19:00:00 22.9 23 Oeste 35 Oeste 0 -- -- 44
2019-08-07 18:00:00 22.8 21 Oeste 36 Oeste 0 -- -- 47
2019-08-07 17:00:00 23.6 19 Oeste 28 Oeste 0 -- -- 43
2019-08-07 16:00:00 23.4 15 Oeste 27 Sudoeste 0 -- -- 49
2019-08-07 15:00:00 23.7 15 Sudoeste 28 Oeste 0 -- -- 47
2019-08-07 14:00:00 24 12 Sudoeste 23 Oeste 0 -- -- 48
2019-08-07 13:00:00 22.7 8 Sudoeste 15 Oeste 0 -- -- 55
2019-08-07 12:00:00 21.8 7 Oeste 10 Oeste 0 -- -- 60
2019-08-07 11:00:00 21.3 5 Noroeste 15 Oeste 0 -- -- 61
2019-08-07 10:00:00 20.2 9 Sudoeste 19 Oeste 0 -- -- 66
2019-08-07 09:00:00 18.5 13 Oeste 18 Sudoeste 0 -- -- 74
2019-08-07 08:00:00 17.4 13 Oeste 19 Oeste 0 -- -- 78
2019-08-07 07:00:00 18.2 15 Oeste 18 Noroeste 0 -- -- 73
2019-08-07 06:00:00 18.7 10 Noroeste 16 Noroeste 0 -- -- 69
2019-08-07 05:00:00 20.3 0 Calma 12 Sudoeste 0 -- -- 62
2019-08-07 04:00:00 20.7 7 Sudoeste 12 Oeste 0 -- -- 61
2019-08-07 03:00:00 20.8 9 Oeste 13 Noroeste 0 -- -- 58
2019-08-07 02:00:00 21.5 8 Oeste 12 Oeste 0 -- -- 54
2019-08-07 01:00:00 22.1 8 Oeste 12 Oeste 0 -- -- 52
2019-08-07 00:00:00 22.9 12 Noroeste 21 Noroeste 0 -- -- 49
2019-08-06 23:00:00 24.1 14 Noroeste 20 Noroeste 0 -- -- 42
2019-08-06 22:00:00 25.5 16 Noroeste 28 Noroeste 0 -- -- 38
2019-08-06 21:00:00 27.8 22 Oeste 38 Oeste 0 -- -- 32
2019-08-06 20:00:00 29 23 Oeste 37 Oeste 0 -- -- 30
2019-08-06 19:00:00 30.7 19 Noroeste 34 Oeste 0 -- -- 28
2019-08-06 18:00:00 30.6 19 Noroeste 35 Noroeste 0 -- -- 29
2019-08-06 17:00:00 30.9 16 Noroeste 38 Oeste 0 -- -- 28
2019-08-06 16:00:00 30.8 19 Oeste 35 Noroeste 0 -- -- 28
2019-08-06 15:00:00 30.3 11 Oeste 30 Oeste 0 -- -- 29
2019-08-06 14:00:00 29.5 13 Noroeste 27 Noroeste 0 -- -- 29
2019-08-06 13:00:00 28.3 13 Oeste 24 Oeste 0 -- -- 31
2019-08-06 12:00:00 26.5 3 Este 13 Nordeste 0 -- -- 42
2019-08-06 11:00:00 25.3 7 Nordeste 14 Nordeste 0 -- -- 47
2019-08-06 10:00:00 23 4 Noroeste 14 Sudoeste 0 -- -- 53
2019-08-06 09:00:00 20.1 8 Sudoeste 18 Sudoeste 0 -- -- 58
2019-08-06 08:00:00 17.3 12 Sudoeste 19 Oeste 0 -- -- 62
2019-08-06 07:00:00 17.4 14 Oeste 22 Oeste 0 -- -- 64
2019-08-06 06:00:00 18.2 14 Oeste 20 Sudoeste 0 -- -- 56
2019-08-06 05:00:00 18.5 13 Sudoeste 18 Sudoeste 0 -- -- 50
2019-08-06 04:00:00 19.6 11 Sudoeste 20 Sudoeste 0 -- -- 47
2019-08-06 03:00:00 20.7 13 Sudoeste 18 Sudoeste 0 -- -- 39
2019-08-06 02:00:00 20.8 10 Oeste 17 Sudoeste 0 -- -- 34
2019-08-06 01:00:00 22 10 Sudoeste 18 Sudoeste 0 -- -- 36
2019-08-06 00:00:00 23 12 Sudoeste 18 Sudoeste 0 -- -- 38
2019-08-05 23:00:00 24.2 13 Oeste 17 Oeste 0 -- -- 37
2019-08-05 22:00:00 25.7 13 Oeste 22 Noroeste 0 -- -- 30
2019-08-05 21:00:00 29.1 18 Noroeste 30 Noroeste 0 -- -- 24
2019-08-05 20:00:00 30.3 22 Noroeste 32 Noroeste 0 -- -- 24
2019-08-05 19:00:00 31.2 17 Noroeste 32 Noroeste 0 -- -- 22
2019-08-05 18:00:00 31.5 18 Noroeste 31 Noroeste 0 -- -- 22
2019-08-05 17:00:00 31.7 16 Oeste 31 Oeste 0 -- -- 21
2019-08-05 16:00:00 30.6 16 Noroeste 29 Oeste 0 -- -- 27
2019-08-05 15:00:00 30.1 13 Oeste 31 Noroeste 0 -- -- 25
2019-08-05 14:00:00 28.9 12 Noroeste 22 Noroeste 0 -- -- 29
2019-08-05 13:00:00 27.3 6 Noroeste 18 Norte 0 -- -- 35
2019-08-05 12:00:00 25.4 7 Nordeste 14 Nordeste 0 -- -- 45
2019-08-05 11:00:00 22.7 5 Norte 10 Norte 0 -- -- 54
2019-08-05 10:00:00 20.9 5 Noroeste 11 Oeste 0 -- -- 60
2019-08-05 09:00:00 19 6 Oeste 14 Sudoeste 0 -- -- 66
2019-08-05 08:00:00 16.5 9 Sudoeste 15 Oeste 0 -- -- 71
2019-08-05 07:00:00 16.5 10 Sudoeste 16 Sudoeste 0 -- -- 69
2019-08-05 06:00:00 17.2 10 Oeste 18 Sudoeste 0 -- -- 66
2019-08-05 05:00:00 17.9 11 Sudoeste 17 Sudoeste 0 -- -- 62
2019-08-05 04:00:00 18.3 12 Sudoeste 18 Sudoeste 0 -- -- 58
2019-08-05 03:00:00 19.8 14 Sudoeste 19 Sudoeste 0 -- -- 49
2019-08-05 02:00:00 21 13 Sudoeste 18 Oeste 0 -- -- 40
2019-08-05 01:00:00 22.4 8 Sudoeste 13 Sudoeste 0 -- -- 39
2019-08-05 00:00:00 23.4 10 Sudoeste 15 Sudoeste 0 -- -- 38
2019-08-04 23:00:00 24.6 10 Oeste 17 Noroeste 0 -- -- 35
2019-08-04 22:00:00 26.5 14 Noroeste 21 Noroeste 0 -- -- 32
2019-08-04 21:00:00 29.4 15 Noroeste 26 Noroeste 0 -- -- 30
2019-08-04 20:00:00 30.6 19 Noroeste 30 Noroeste 0 -- -- 29
2019-08-04 19:00:00 31.2 15 Noroeste 39 Oeste 0 -- -- 28
2019-08-04 18:00:00 31.4 14 Noroeste 33 Oeste 0 -- -- 28
2019-08-04 17:00:00 31.2 20 Noroeste 33 Oeste 0 -- -- 30
2019-08-04 16:00:00 30.8 18 Oeste 32 Oeste 0 -- -- 28
2019-08-04 15:00:00 30.2 12 Oeste 27 Noroeste 0 -- -- 28
2019-08-04 14:00:00 29.2 10 Noroeste 24 Oeste 0 -- -- 32
2019-08-04 13:00:00 27.2 5 Noroeste 14 Noroeste 0 -- -- 40
2019-08-04 12:00:00 25 7 Norte 15 Norte 0 -- -- 48
2019-08-04 11:00:00 22.9 6 Noroeste 14 Noroeste 0 -- -- 55
2019-08-04 10:00:00 21.3 8 Oeste 13 Oeste 0 -- -- 60
2019-08-04 09:00:00 19.5 8 Oeste 19 Oeste 0 -- -- 64
2019-08-04 08:00:00 17.5 14 Oeste 19 Sudoeste 0 -- -- 65
2019-08-04 07:00:00 17.6 15 Sudoeste 24 Sudoeste 0 -- -- 62
2019-08-04 06:00:00 18 15 Sudoeste 23 Sudoeste 0 -- -- 61
2019-08-04 05:00:00 18.7 16 Oeste 24 Sudoeste 0 -- -- 57
2019-08-04 04:00:00 19.7 16 Oeste 24 Oeste 0 -- -- 54
2019-08-04 03:00:00 20.5 14 Oeste 21 Oeste 0 -- -- 48
2019-08-04 02:00:00 21.3 13 Sudoeste 22 Sudoeste 0 -- -- 42
2019-08-04 01:00:00 23 14 Sudoeste 21 Sudoeste 0 -- -- 36
2019-08-04 00:00:00 24.2 11 Sudoeste 18 Sudoeste 0 -- -- 34
2019-08-03 23:00:00 25 14 Oeste 18 Oeste 0 -- -- 34
2019-08-03 22:00:00 25.8 11 Oeste 19 Noroeste 0 -- -- 32
2019-08-03 21:00:00 29.4 17 Noroeste 28 Noroeste 0 -- -- 27
2019-08-03 20:00:00 30.8 23 Noroeste 39 Noroeste 0 -- -- 24
2019-08-03 19:00:00 31.4 22 Noroeste 43 Oeste 0 -- -- 22
2019-08-03 18:00:00 31.8 18 Noroeste 38 Oeste 0 -- -- 22
2019-08-03 17:00:00 32.4 21 Oeste 37 Oeste 0 -- -- 16
2019-08-03 16:00:00 31.9 20 Oeste 35 Oeste 0 -- -- 18
2019-08-03 15:00:00 -- -- -- 38 Oeste -- -- -- --
2019-08-03 14:00:00 31 18 Oeste 35 Oeste 0 -- -- 19
2019-08-03 13:00:00 29.8 21 Oeste 36 Noroeste 0 -- -- 20
2019-08-03 12:00:00 28.2 15 Oeste 23 Oeste 0 -- -- 25
2019-08-03 11:00:00 25.2 11 Oeste 17 Oeste 0 -- -- 34
2019-08-03 10:00:00 22.4 11 Oeste 15 Oeste 0 -- -- 40
2019-08-03 09:00:00 20.8 6 Sudoeste 12 Sudoeste 0 -- -- 39
2019-08-03 08:00:00 18.5 3 Sur 14 Sudoeste 0 -- -- 42
2019-08-03 07:00:00 18.2 12 Oeste 22 Sudoeste 0 -- -- 40
2019-08-03 06:00:00 18.5 14 Oeste 21 Sudoeste 0 -- -- 39
2019-08-03 05:00:00 18.7 10 Sudoeste 15 Sudoeste 0 -- -- 38
2019-08-03 04:00:00 19.5 10 Sudoeste 15 Sudoeste 0 -- -- 38
2019-08-03 03:00:00 19.9 7 Sudoeste 12 Sudoeste 0 -- -- 37
2019-08-03 02:00:00 20.7 10 Sudoeste 14 Sudoeste 0 -- -- 35
2019-08-03 01:00:00 22.9 2 Noroeste 5 Noroeste 0 -- -- 32
2019-08-03 00:00:00 23.8 3 Noroeste 6 Oeste 0 -- -- 30
2019-08-02 23:00:00 25.5 5 Noroeste 11 Oeste 0 -- -- 26
2019-08-02 22:00:00 25.8 8 Noroeste 13 Norte 0 -- -- 24
2019-08-02 21:00:00 29.3 12 Noroeste 21 Noroeste 0 -- -- 22
2019-08-02 20:00:00 30.3 17 Noroeste 25 Noroeste 0 -- -- 23
2019-08-02 19:00:00 31.2 16 Noroeste 28 Noroeste 0 -- -- 23
2019-08-02 18:00:00 31.6 10 Oeste 24 Oeste 0 -- -- 24
2019-08-02 17:00:00 30.9 6 Noroeste 22 Oeste 0 -- -- 25
2019-08-02 16:00:00 30.2 10 Norte 25 Noroeste 0 -- -- 26
2019-08-02 15:00:00 29.7 8 Noroeste 26 Norte 0 -- -- 28
2019-08-02 14:00:00 28.2 10 Norte 20 Nordeste 0 -- -- 32
2019-08-02 13:00:00 26.2 13 Norte 22 Nordeste 0 -- -- 42
2019-08-02 12:00:00 24.2 9 Nordeste 17 Nordeste 0 -- -- 45
2019-08-02 11:00:00 21.7 7 Nordeste 13 Nordeste 0 -- -- 52
2019-08-02 10:00:00 18.9 4 Nordeste 6 Nordeste 0 -- -- 64
2019-08-02 09:00:00 16.3 3 Nordeste 5 Nordeste 0 -- -- 79
2019-08-02 08:00:00 14.6 0 Calma 7 Oeste 0 -- -- 68
2019-08-02 07:00:00 13.4 6 Oeste 11 Oeste 0 -- -- 63
2019-08-02 06:00:00 15.4 8 Oeste 17 Oeste 0 -- -- 56
2019-08-02 05:00:00 16.1 12 Oeste 21 Sudoeste 0 -- -- 53
2019-08-02 04:00:00 17.6 14 Sudoeste 22 Sudoeste 0 -- -- 47
2019-08-02 03:00:00 18.5 14 Sudoeste 23 Sudoeste 0 -- -- 40
2019-08-02 02:00:00 19.1 14 Sudoeste 19 Oeste 0 -- -- 36
2019-08-02 01:00:00 21.2 8 Oeste 10 Oeste 0 -- -- 32
2019-08-02 00:00:00 22.2 4 Noroeste 7 Noroeste 0 -- -- 32
2019-08-01 23:00:00 22.5 7 Noroeste 14 Noroeste 0 -- -- 31
2019-08-01 22:00:00 24.1 10 Noroeste 22 Noroeste 0 -- -- 28
2019-08-01 21:00:00 27.6 17 Noroeste 24 Noroeste 0 -- -- 25
2019-08-01 20:00:00 28.4 20 Noroeste 39 Noroeste 0 -- -- 24
2019-08-01 19:00:00 29 19 Noroeste 37 Noroeste 0 -- -- 25
2019-08-01 18:00:00 29 19 Noroeste 38 Noroeste 0 -- -- 26
2019-08-01 17:00:00 29 21 Oeste 36 Noroeste 0 -- -- 27
2019-08-01 16:00:00 28.6 17 Oeste 31 Oeste 0 -- -- 27
2019-08-01 15:00:00 27.3 15 Noroeste 28 Noroeste 0 -- -- 30
2019-08-01 14:00:00 26.2 10 Noroeste 25 Noroeste 0 -- -- 34
2019-08-01 13:00:00 25.2 15 Noroeste 23 Noroeste 0 -- -- 34
2019-08-01 12:00:00 23.8 17 Oeste 29 Oeste 0 -- -- 41
2019-08-01 11:00:00 21.5 14 Oeste 22 Oeste 0 -- -- 49
2019-08-01 10:00:00 19 13 Oeste 18 Oeste 0 -- -- 59
2019-08-01 09:00:00 16.8 9 Oeste 15 Oeste 0 -- -- 62
2019-08-01 08:00:00 14.4 5 Sudoeste 12 Sudoeste 0 -- -- 72
2019-08-01 07:00:00 14 6 Oeste 10 Noroeste 0 -- -- 70
2019-08-01 06:00:00 15.3 6 Oeste 8 Noroeste 0 -- -- 62
2019-08-01 05:00:00 16.9 4 Oeste 9 Noroeste 0 -- -- 58
2019-08-01 04:00:00 17.6 7 Noroeste 13 Noroeste 0 -- -- 53
2019-08-01 03:00:00 18.9 8 Oeste 10 Oeste 0 -- -- 50
2019-08-01 02:00:00 19.2 7 Sudeste 18 Sudeste 0 -- -- 48
2019-08-01 01:00:00 20.3 9 Sudeste 14 Sudeste 0 -- -- 46
2019-08-01 00:00:00 20.9 6 Nordeste 12 Norte 0 -- -- 43
2019-07-31 23:00:00 22.6 9 Norte 14 Nordeste 0 -- -- 38
2019-07-31 22:00:00 23.9 8 Norte 17 Norte 0 -- -- 35
2019-07-31 21:00:00 25.8 15 Norte 22 Norte 0 -- -- 35
2019-07-31 20:00:00 26.8 14 Norte 26 Norte 0 -- -- 34
2019-07-31 19:00:00 27.8 19 Norte 30 Noroeste 0 -- -- 34
2019-07-31 18:00:00 28.8 16 Noroeste 28 Noroeste 0 -- -- 33
2019-07-31 17:00:00 28.6 19 Noroeste 36 Noroeste 0 -- -- 34
2019-07-31 16:00:00 28.4 22 Norte 34 Norte 0 -- -- 35
2019-07-31 15:00:00 27.2 20 Nordeste 32 Nordeste 0 -- -- 37
2019-07-31 14:00:00 25.3 20 Nordeste 34 Nordeste 0 -- -- 39
2019-07-31 13:00:00 23.4 14 Nordeste 26 Nordeste 0 -- -- 43
2019-07-31 12:00:00 20.3 15 Nordeste 22 Norte 0 -- -- 48
2019-07-31 11:00:00 17.5 13 Nordeste 20 Nordeste 0 -- -- 54
2019-07-31 10:00:00 14.8 11 Nordeste 15 Nordeste 0 -- -- 61
2019-07-31 09:00:00 12.7 7 Este 9 Este 0 -- -- 68
2019-07-31 08:00:00 10.1 4 Nordeste 9 Este 0 -- -- 72
2019-07-31 07:00:00 10.4 8 Sudeste 8 Sudeste 0 -- -- 71
2019-07-31 06:00:00 11.1 4 Este 8 Este 0 -- -- 69
2019-07-31 05:00:00 11.8 5 Este 8 Nordeste 0 -- -- 60
2019-07-31 04:00:00 12.7 5 Este 8 Este 0 -- -- 57
2019-07-31 03:00:00 13.2 6 Nordeste 8 Nordeste 0 -- -- 53
2019-07-31 02:00:00 14.6 4 Nordeste 9 Este 0 -- -- 45
2019-07-31 01:00:00 15.9 6 Este 12 Este 0 -- -- 41
2019-07-31 00:00:00 17.4 8 Este 9 Este 0 -- -- 38
2019-07-30 23:00:00 18.2 5 Nordeste 19 Nordeste 0 -- -- 36
2019-07-30 22:00:00 20.6 13 Nordeste 21 Norte 0 -- -- 34
2019-07-30 21:00:00 23 13 Nordeste 26 Norte 0 -- -- 29
2019-07-30 20:00:00 23.4 12 Nordeste 24 Norte 0 -- -- 28
2019-07-30 19:00:00 24 10 Nordeste 23 Este 0 -- -- 27
2019-07-30 18:00:00 23.6 12 Nordeste 24 Nordeste 0 -- -- 27
2019-07-30 17:00:00 22.9 10 Norte 22 Nordeste 0 -- -- 29
2019-07-30 16:00:00 21.8 8 Norte 22 Nordeste 0 -- -- 31
2019-07-30 15:00:00 20.8 11 Nordeste 22 Nordeste 0 -- -- 32
2019-07-30 14:00:00 19.5 11 Nordeste 25 Nordeste 0 -- -- 38
2019-07-30 13:00:00 17.9 6 Norte 16 Nordeste 0 -- -- 43
2019-07-30 12:00:00 16.3 6 Nordeste 15 Norte 0 -- -- 49
2019-07-30 11:00:00 14.5 5 Nordeste 15 Norte 0 -- -- 56
2019-07-30 10:00:00 13.3 8 Nordeste 15 Norte 0 -- -- 59
2019-07-30 09:00:00 12.2 5 Norte 10 Norte 0 -- -- 64
2019-07-30 08:00:00 10.8 0 Calma 9 Noroeste 0 -- -- 69
2019-07-30 07:00:00 9.3 7 Oeste 10 Oeste 0 -- -- 76
2019-07-30 06:00:00 9.8 9 Oeste 12 Oeste 0 -- -- 72
2019-07-30 05:00:00 10.4 7 Oeste 12 Oeste 0 -- -- 68
2019-07-30 04:00:00 11.3 9 Oeste 15 Oeste 0 -- -- 64
2019-07-30 03:00:00 12.6 10 Oeste 15 Oeste 0 -- -- 59
2019-07-30 02:00:00 13.1 9 Oeste 22 Noroeste 0 -- -- 56
2019-07-30 01:00:00 14.3 8 Oeste 13 Oeste 0 -- -- 53
2019-07-30 00:00:00 15.5 10 Oeste 22 Oeste 0 -- -- 48
2019-07-29 23:00:00 17.7 19 Oeste 27 Oeste 0 -- -- 43
2019-07-29 22:00:00 19.3 17 Oeste 35 Oeste 0 -- -- 34
2019-07-29 21:00:00 21.9 26 Noroeste 35 Oeste 0 -- -- 28
2019-07-29 20:00:00 23.4 27 Noroeste 42 Oeste 0 -- -- 29
2019-07-29 19:00:00 24.4 27 Noroeste 41 Noroeste 0 -- -- 28
2019-07-29 18:00:00 24.9 28 Noroeste 44 Noroeste 0 -- -- 29
2019-07-29 17:00:00 24.9 27 Oeste 42 Noroeste 0 -- -- 31
2019-07-29 16:00:00 24.6 26 Noroeste 47 Noroeste 0 -- -- 38
2019-07-29 15:00:00 23.7 24 Noroeste 49 Oeste 0 -- -- 44
2019-07-29 14:00:00 22.8 20 Oeste 31 Oeste 0 -- -- 50
2019-07-29 13:00:00 21.6 15 Noroeste 28 Oeste 0 -- -- 45
2019-07-29 12:00:00 20 12 Oeste 25 Oeste 0 -- -- 52
2019-07-29 11:00:00 19.5 15 Oeste 22 Oeste 0 -- -- 43
2019-07-29 10:00:00 18.2 13 Oeste 19 Oeste 0 -- -- 41
2019-07-29 09:00:00 16.7 11 Oeste 17 Oeste 0 -- -- 48
2019-07-29 08:00:00 14.1 11 Oeste 17 Sudoeste 0 -- -- 70
2019-07-29 07:00:00 14 12 Oeste 20 Sudoeste 0 -- -- 73
2019-07-29 06:00:00 14.7 16 Oeste 26 Sudoeste 0 -- -- 69
2019-07-29 05:00:00 15.7 17 Oeste 24 Oeste 0 -- -- 57
2019-07-29 04:00:00 16.3 15 Oeste 24 Oeste 0 -- -- 54
2019-07-29 03:00:00 17.1 14 Sudoeste 20 Sudoeste 0 -- -- 40
2019-07-29 02:00:00 18.8 13 Sudoeste 17 Oeste 0 -- -- 33
2019-07-29 01:00:00 19 9 Sudoeste 14 Sudoeste 0 -- -- 35
2019-07-29 00:00:00 19.3 12 Oeste 13 Oeste 0 -- -- 36
2019-07-28 23:00:00 21.1 5 Noroeste 8 Oeste 0 -- -- 32
2019-07-28 22:00:00 22.7 6 Oeste 13 Noroeste 0 -- -- 31
2019-07-28 21:00:00 25.2 12 Noroeste 21 Noroeste 0 -- -- 27
2019-07-28 20:00:00 25.9 10 Noroeste 26 Noroeste 0 -- -- 28
2019-07-28 19:00:00 26.1 13 Noroeste 28 Noroeste 0 -- -- 29
2019-07-28 18:00:00 26 12 Noroeste 26 Noroeste 0 -- -- 28
2019-07-28 17:00:00 25.6 13 Noroeste 27 Noroeste 0 -- -- 26
2019-07-28 16:00:00 24.7 13 Noroeste 27 Noroeste 0 -- -- 28
2019-07-28 15:00:00 23.5 10 Noroeste 30 Noroeste 0 -- -- 36
2019-07-28 14:00:00 22.6 9 Norte 21 Norte 0 -- -- 40
2019-07-28 13:00:00 21.3 6 Norte 19 Nordeste 0 -- -- 44
2019-07-28 12:00:00 19.8 9 Este 19 Este 0 -- -- 47
2019-07-28 11:00:00 18.2 11 Este 17 Este 0 -- -- 54
2019-07-28 10:00:00 15.3 8 Este 12 Este 0 -- -- 70
2019-07-28 09:00:00 12.5 8 Este 10 Este 0 -- -- 79
2019-07-28 08:00:00 10.1 4 Nordeste 7 Sudeste 0 -- -- 83
2019-07-28 07:00:00 9.9 3 Sudeste 6 Sudeste 0 -- -- 88
2019-07-28 06:00:00 10.3 4 Sudeste 7 Sudeste 0 -- -- 86
2019-07-28 05:00:00 10.6 8 Este 10 Este 0 -- -- 85
2019-07-28 04:00:00 11.2 8 Este 9 Este 0 -- -- 81
2019-07-28 03:00:00 12.1 7 Este 14 Este 0 -- -- 79
2019-07-28 02:00:00 13.4 9 Este 21 Nordeste 0 -- -- 77
2019-07-28 01:00:00 14.8 14 Este 26 Este 0 -- -- 72
2019-07-28 00:00:00 15.4 13 Este 26 Nordeste 0 -- -- 73
2019-07-27 23:00:00 17.4 17 Nordeste 24 Norte 0 -- -- 67
2019-07-26 12:00:00 -- -- -- -- -- -- -- -- --
2019-07-26 11:00:00 -- -- -- -- -- -- -- -- --
2019-07-26 10:00:00 15.5 14 Noroeste 22 Oeste 0 -- -- 76
2019-07-26 09:00:00 15.9 19 Oeste 23 Oeste 0 -- -- 77
2019-07-26 08:00:00 16.5 14 Noroeste 20 Noroeste 0 -- -- 81
2019-07-26 07:00:00 17 15 Noroeste 19 Noroeste 0 -- -- 81
2019-07-26 06:00:00 17.3 8 Noroeste 17 Noroeste 0 -- -- 81
2019-07-26 05:00:00 18 15 Noroeste 20 Noroeste 0 -- -- 78
2019-07-26 04:00:00 18.4 18 Noroeste 23 Noroeste 0 -- -- 78
2019-07-26 03:00:00 19.1 7 Noroeste 24 Noroeste 0 -- -- 77
2019-07-26 02:00:00 19.9 15 Noroeste 29 Noroeste 0 -- -- 72
2019-07-26 01:00:00 21.4 20 Oeste 27 Oeste 0 -- -- 64
2019-07-26 00:00:00 22.5 5 Noroeste 20 Noroeste 0 -- -- 53
2019-07-25 23:00:00 23.5 18 Noroeste 34 Noroeste 0 -- -- 50
2019-07-25 22:00:00 26 19 Oeste 28 Oeste 0 -- -- 34
2019-07-25 21:00:00 27.2 21 Oeste 40 Oeste 0 -- -- 33
2019-07-25 20:00:00 29.3 26 Oeste 41 Oeste 0 -- -- 31
2019-07-25 19:00:00 30.5 27 Oeste 45 Oeste 0 -- -- 27
2019-07-25 18:00:00 30.8 36 Oeste 52 Oeste 0 -- -- 24
2019-07-25 17:00:00 31.4 30 Oeste 46 Oeste 0 -- -- 26
2019-07-25 16:00:00 30.9 28 Oeste 51 Oeste 0 -- -- 28
2019-07-25 15:00:00 30.9 32 Oeste 44 Oeste 0 -- -- 27
2019-07-25 14:00:00 31.3 26 Oeste 38 Oeste 0 -- -- 27
2019-07-25 13:00:00 30.1 27 Oeste 41 Oeste 0 -- -- 29
2019-07-25 12:00:00 30 22 Oeste 39 Oeste 0 -- -- 29
2019-07-25 11:00:00 29 14 Oeste 27 Oeste 0 -- -- 33
2019-07-25 10:00:00 27.4 8 Sudoeste 16 Oeste 0 -- -- 33
2019-07-25 09:00:00 24.8 4 Sur 12 Sudeste 0 -- -- 39
2019-07-25 08:00:00 20.2 5 Sur 13 Sur 0 -- -- 47
2019-07-25 07:00:00 19.6 8 Sur 14 Sur 0 -- -- 47
2019-07-25 06:00:00 20.4 7 Sudoeste 12 Sudoeste 0 -- -- 46
2019-07-25 05:00:00 20.4 7 Sudoeste 13 Sudoeste 0 -- -- 46
2019-07-25 04:00:00 21.2 4 Sudoeste 16 Sudoeste 0 -- -- 46
2019-07-25 03:00:00 21.6 12 Sudoeste 18 Sudoeste 0 -- -- 46
2019-07-25 02:00:00 22.5 13 Oeste 26 Oeste 0 -- -- 45
2019-07-25 01:00:00 24.8 19 Oeste 36 Oeste 0 -- -- 40
2019-07-25 00:00:00 25.4 11 Sudoeste 15 Sudoeste 0 -- -- 36
2019-07-24 23:00:00 26.8 9 Sudoeste 15 Sudoeste 0 -- -- 34
2019-07-24 22:00:00 28.8 9 Sudoeste 29 Sudoeste 0 -- -- 31
2019-07-24 21:00:00 31.3 17 Sudoeste 34 Sudoeste 0 -- -- 25
2019-07-24 20:00:00 32.4 22 Sudoeste 36 Sudoeste 0 -- -- 25
2019-07-24 19:00:00 34 13 Sudoeste 27 Sur 0 -- -- 22
2019-07-24 18:00:00 32.9 12 Sur 29 Sur 0 -- -- 23
2019-07-24 17:00:00 33.9 14 Sur 36 Oeste 0 -- -- 23
2019-07-24 16:00:00 33.8 15 Sudoeste 33 Sudoeste 0 -- -- 21
2019-07-24 15:00:00 32.6 13 Sudoeste 27 Sur 0 -- -- 23
2019-07-24 14:00:00 31.6 12 Oeste 24 Oeste 0 -- -- 30
2019-07-24 13:00:00 31.6 12 Oeste 22 Oeste 0 -- -- 30
2019-07-24 12:00:00 31 10 Oeste 21 Oeste 0 -- -- 31
2019-07-24 11:00:00 29.9 8 Sudoeste 22 Sudoeste 0 -- -- 33
2019-07-24 10:00:00 27.4 3 Norte 9 Sudeste 0 -- -- 35
2019-07-24 09:00:00 23.8 4 Sudeste 11 Sur 0 -- -- 41
2019-07-24 08:00:00 19.9 7 Sur 19 Sudeste 0 -- -- 50
2019-07-24 07:00:00 18.4 8 Sur 22 Sudeste 0 -- -- 55
2019-07-24 06:00:00 19.3 8 Noroeste 22 Norte 0 -- -- 52
2019-07-24 05:00:00 22.2 5 Sur 13 Sudoeste 0 -- -- 42
2019-07-24 04:00:00 22.7 6 Sudoeste 16 Sudoeste 0 -- -- 40
2019-07-24 03:00:00 23.3 6 Sur 16 Sur 0 -- -- 41
2019-07-24 02:00:00 23.5 9 Sur 18 Sur 0 -- -- 44
2019-07-24 01:00:00 24 10 Sur 19 Sur 0 -- -- 44
2019-07-24 00:00:00 24.8 4 Sudeste 19 Nordeste 0 -- -- 39
2019-07-23 23:00:00 25.9 7 Sur 27 Sur 0 -- -- 34
2019-07-23 22:00:00 27.3 12 Sur 34 Sur 0 -- -- 35
2019-07-23 21:00:00 31.7 19 Oeste 37 Oeste 0 -- -- 27
2019-07-23 20:00:00 33.4 13 Sudoeste 31 Sudoeste 0 -- -- 25
2019-07-23 19:00:00 33.6 13 Sur 28 Oeste 0 -- -- 25
2019-07-23 18:00:00 33.4 10 Sudoeste 29 Sudoeste 0 -- -- 25
2019-07-23 17:00:00 33.1 12 Sudoeste 28 Sudoeste 0 -- -- 27
2019-07-23 16:00:00 33 9 Sudoeste 32 Oeste 0 -- -- 27
2019-07-23 15:00:00 31.9 24 Oeste 40 Oeste 0 -- -- 27
2019-07-23 14:00:00 32.2 13 Sur 33 Sudeste 0 -- -- 32
2019-07-23 13:00:00 28.8 10 Sur 76 Sudoeste 0 -- -- 33
2019-07-23 12:00:00 24.8 20 Sudoeste 48 Sur 0 -- -- 44
2019-07-23 11:00:00 27 15 Sudeste 33 Sudeste 0 -- -- 42
2019-07-23 10:00:00 23.1 13 Sudeste 25 Sudeste 0 -- -- 54
2019-07-23 09:00:00 19.6 10 Sudeste 27 Este 0 -- -- 70
2019-07-23 08:00:00 19.2 8 Nordeste 38 Noroeste 1.4 -- -- 71
2019-07-23 07:00:00 19.9 23 Sudoeste 51 Sudoeste 0.6 -- -- 66
2019-07-23 06:00:00 23.4 14 Sudoeste 51 Sudeste 0 -- -- 46
2019-07-23 05:00:00 23.1 15 Sudeste 34 Sudeste 0 -- -- 46
2019-07-23 04:00:00 23.8 10 Sudeste 32 Sudoeste 0 -- -- 44
2019-07-23 03:00:00 23.8 10 Sudoeste 35 Este 0 -- -- 45
2019-07-23 02:00:00 23.7 23 Este 37 Este 0 -- -- 46
2019-07-23 01:00:00 25 16 Nordeste 25 Norte 0 -- -- 38
2019-07-23 00:00:00 26.4 6 Sur 19 Sudeste 0 -- -- 32
2019-07-22 23:00:00 25.9 8 Nordeste 21 Nordeste 0 -- -- 32
2019-07-22 22:00:00 27.3 10 Nordeste 33 Nordeste 0 -- -- 29
2019-07-22 21:00:00 31.6 9 Este 25 Sur 0 -- -- 23
2019-07-22 20:00:00 32.6 9 Sur 22 Sudeste 0 -- -- 24
2019-07-22 19:00:00 32.5 5 Sudoeste 17 Noroeste 0 -- -- 23
2019-07-22 18:00:00 32.3 13 Noroeste 19 Oeste 0 -- -- 27
2019-07-22 17:00:00 32.5 10 Sudoeste 32 Sur 0 -- -- 26
2019-07-22 16:00:00 34.7 18 Sudeste 42 Este 0 -- -- 22
2019-07-22 15:00:00 35.6 19 Sudeste 34 Sudeste 0 -- -- 22
2019-07-22 14:00:00 35.4 14 Sudeste 32 Sudeste 0 -- -- 22
2019-07-22 13:00:00 34.5 13 Sudeste 22 Noroeste 0 -- -- 23
2019-07-22 12:00:00 33.4 7 Norte 16 Sur 0 -- -- 25
2019-07-22 11:00:00 31.7 9 Sur 26 Sur 0 -- -- 26
2019-07-22 10:00:00 27.3 12 Sur 28 Sur 0 -- -- 31
2019-07-22 09:00:00 26.6 15 Sudeste 30 Sudeste 0 -- -- 31
2019-07-22 08:00:00 24.4 13 Sudeste 24 Sudeste 0 -- -- 36
2019-07-22 07:00:00 24 12 Sudeste 26 Sudeste 0 -- -- 37
2019-07-22 06:00:00 24.5 14 Sur 26 Sur 0 -- -- 37
2019-07-22 05:00:00 24.9 13 Sudeste 27 Sur 0 -- -- 40
2019-07-22 04:00:00 24.7 12 Sur 26 Sur 0 -- -- 46
2019-07-22 03:00:00 23.1 6 Sur 10 Sur 0 -- -- 35
2019-07-22 02:00:00 24.9 4 Oeste 6 Oeste 0 -- -- 32
2019-07-22 01:00:00 25.9 4 Noroeste 6 Norte 0 -- -- 32
2019-07-22 00:00:00 26.7 4 Norte 13 Norte 0 -- -- 31
2019-07-21 23:00:00 27.5 10 Norte 14 Norte 0 -- -- 29
2019-07-21 22:00:00 30.1 10 Noroeste 15 Norte 0 -- -- 25
2019-07-21 21:00:00 33.1 8 Sudeste 21 Sudeste 0 -- -- 24
2019-07-21 20:00:00 33.5 8 Sudeste 15 Sur 0 -- -- 25
2019-07-21 19:00:00 33.9 4 Este 18 Norte 0 -- -- 24
2019-07-21 18:00:00 34 13 Oeste 27 Noroeste 0 -- -- 24
2019-07-21 17:00:00 33.7 14 Norte 28 Noroeste 0 -- -- 25
2019-07-21 16:00:00 32.9 11 Oeste 26 Norte 0 -- -- 26
2019-07-21 15:00:00 32.5 13 Noroeste 26 Noroeste 0 -- -- 26
2019-07-21 14:00:00 31.2 12 Norte 22 Norte 0 -- -- 28
2019-07-21 13:00:00 30.1 9 Nordeste 19 Nordeste 0 -- -- 31
2019-07-21 12:00:00 27.9 9 Nordeste 16 Este 0 -- -- 38
2019-07-21 11:00:00 24.6 9 Este 15 Nordeste 0 -- -- 47
2019-07-21 10:00:00 21.1 6 Nordeste 10 Nordeste 0 -- -- 56
2019-07-21 09:00:00 19.6 4 Este 6 Este 0 -- -- 60
2019-07-21 08:00:00 15.7 0 Calma 7 Este 0 -- -- 66
2019-07-21 07:00:00 15.6 4 Sudeste 8 Este 0 -- -- 61
2019-07-21 06:00:00 16.9 4 Noroeste 14 Sudoeste 0 -- -- 55
2019-07-21 05:00:00 18.1 11 Oeste 15 Oeste 0 -- -- 53
2019-07-21 04:00:00 19.4 9 Sudoeste 12 Sudoeste 0 -- -- 49
2019-07-21 03:00:00 21.1 8 Sudoeste 13 Sudoeste 0 -- -- 45
2019-07-21 02:00:00 22.5 7 Oeste 10 Oeste 0 -- -- 41
2019-07-21 01:00:00 23.2 6 Oeste 8 Oeste 0 -- -- 38
2019-07-21 00:00:00 23.6 7 Oeste 13 Noroeste 0 -- -- 35